createdAt,value
2022-08-05T00:00:17.690Z,906
2022-08-05T00:02:18.116Z,907
2022-08-05T00:04:18.233Z,904
2022-08-05T00:06:22.324Z,906
2022-08-05T00:08:32.865Z,911
2022-08-05T00:10:18.281Z,904
2022-08-05T00:12:23.075Z,908
2022-08-05T00:14:17.875Z,905
2022-08-05T00:16:17.622Z,902
2022-08-05T00:18:21.905Z,906
2022-08-05T00:20:20.279Z,902
2022-08-05T00:22:18.364Z,903
2022-08-05T00:24:19.105Z,900
2022-08-05T00:26:17.563Z,900
2022-08-05T00:28:21.084Z,902
2022-08-05T00:30:18.193Z,891
2022-08-05T00:32:17.750Z,894
2022-08-05T00:34:42.702Z,893
2022-08-05T00:37:09.359Z,895
2022-08-05T00:38:17.785Z,899
2022-08-05T00:40:26.603Z,894
2022-08-05T00:42:31.429Z,895
2022-08-05T00:44:17.739Z,889
2022-08-05T00:46:17.439Z,894
2022-08-05T00:48:18.367Z,884
2022-08-05T00:50:17.535Z,893
2022-08-05T00:52:17.455Z,888
2022-08-05T00:54:17.699Z,898
2022-08-05T00:56:17.541Z,889
2022-08-05T00:58:19.095Z,884
2022-08-05T01:00:17.645Z,885
2022-08-05T01:02:17.809Z,891
2022-08-05T01:04:20.039Z,894
2022-08-05T01:06:17.680Z,888
2022-08-05T01:08:30.889Z,882
2022-08-05T01:10:17.643Z,880
2022-08-05T01:12:18.339Z,887
2022-08-05T01:14:17.731Z,901
2022-08-05T01:16:26.364Z,896
2022-08-05T01:18:17.768Z,894
2022-08-05T01:20:17.775Z,889
2022-08-05T01:22:18.941Z,889
2022-08-05T01:24:18.223Z,883
2022-08-05T01:26:17.856Z,889
2022-08-05T01:28:17.692Z,888
2022-08-05T01:30:17.884Z,887
2022-08-05T01:32:18.340Z,887
2022-08-05T01:34:18.321Z,893
2022-08-05T01:36:17.774Z,889
2022-08-05T01:38:25.017Z,893
2022-08-05T01:40:18.297Z,894
2022-08-05T01:42:18.099Z,891
2022-08-05T01:44:17.905Z,893
2022-08-05T01:46:41.705Z,892
2022-08-05T01:48:17.556Z,882
2022-08-05T01:50:17.466Z,897
2022-08-05T01:52:18.204Z,892
2022-08-05T01:54:18.091Z,876
2022-08-05T01:58:09.175Z,899
2022-08-05T01:58:17.930Z,876
2022-08-05T02:00:17.980Z,892
2022-08-05T02:02:17.884Z,897
2022-08-05T02:04:18.052Z,897
2022-08-05T02:06:34.034Z,894
2022-08-05T02:08:28.904Z,890
2022-08-05T02:10:17.933Z,887
2022-08-05T02:12:18.328Z,884
2022-08-05T02:14:18.275Z,887
2022-08-05T02:16:18.212Z,891
2022-08-05T02:18:28.888Z,887
2022-08-05T02:20:20.622Z,880
2022-08-05T02:22:26.038Z,882
2022-08-05T02:24:17.788Z,886
2022-08-05T02:26:17.739Z,894
2022-08-05T02:28:17.442Z,883
2022-08-05T02:30:18.174Z,886
2022-08-05T02:32:19.724Z,883
2022-08-05T02:34:17.705Z,884
2022-08-05T02:36:17.822Z,879
2022-08-05T02:38:19.225Z,883
2022-08-05T02:40:17.606Z,876
2022-08-05T02:42:22.544Z,864
2022-08-05T02:44:17.431Z,876
2022-08-05T02:46:17.709Z,860
2022-08-05T02:48:17.623Z,865
2022-08-05T02:50:18.101Z,857
2022-08-05T02:52:26.149Z,866
2022-08-05T02:54:34.319Z,861
2022-08-05T02:56:18.874Z,873
2022-08-05T02:58:17.865Z,869
2022-08-05T03:00:18.233Z,874
2022-08-05T03:02:17.387Z,872
2022-08-05T03:04:17.894Z,868
2022-08-05T03:06:53.475Z,865
2022-08-05T03:08:17.962Z,858
2022-08-05T03:10:21.700Z,858
2022-08-05T03:12:17.666Z,865
2022-08-05T03:14:17.591Z,863
2022-08-05T03:16:17.430Z,846
2022-08-05T03:18:17.643Z,845
2022-08-05T03:20:17.498Z,851
2022-08-05T03:22:18.960Z,852
2022-08-05T03:24:17.727Z,849
2022-08-05T03:26:30.662Z,852
2022-08-05T03:28:18.625Z,839
2022-08-05T03:30:17.456Z,849
2022-08-05T03:32:17.399Z,863
2022-08-05T03:34:17.430Z,852
2022-08-05T03:36:17.915Z,849
2022-08-05T03:38:17.642Z,843
2022-08-05T03:40:24.100Z,842
2022-08-05T03:42:18.113Z,843
2022-08-05T03:44:19.644Z,835
2022-08-05T03:46:17.675Z,834
2022-08-05T03:48:19.762Z,833
2022-08-05T03:50:17.531Z,843
2022-08-05T03:52:35.645Z,840
2022-08-05T03:55:00.911Z,847
2022-08-05T03:56:26.880Z,833
2022-08-05T03:58:17.900Z,835
2022-08-05T04:00:17.663Z,824
2022-08-05T04:02:34.814Z,838
2022-08-05T04:04:21.181Z,836
2022-08-05T04:06:18.296Z,833
2022-08-05T04:08:35.363Z,840
2022-08-05T04:10:18.189Z,844
2022-08-05T04:12:19.546Z,850
2022-08-05T04:14:17.826Z,849
2022-08-05T04:16:24.024Z,849
2022-08-05T04:18:20.676Z,853
2022-08-05T04:20:18.195Z,862
2022-08-05T04:22:20.377Z,865
2022-08-05T04:24:19.073Z,854
2022-08-05T04:26:17.817Z,848
2022-08-05T04:28:18.100Z,849
2022-08-05T04:30:18.124Z,846
2022-08-05T04:32:20.064Z,844
2022-08-05T04:34:32.091Z,815
2022-08-05T04:36:45.042Z,842
2022-08-05T04:38:17.764Z,841
2022-08-05T04:40:19.395Z,831
2022-08-05T04:42:17.310Z,825
2022-08-05T04:44:21.117Z,829
2022-08-05T04:46:28.059Z,829
2022-08-05T04:48:18.772Z,831
2022-08-05T04:50:34.546Z,831
2022-08-05T04:52:18.683Z,821
2022-08-05T04:54:17.561Z,820
2022-08-05T04:56:34.180Z,830
2022-08-05T04:58:20.139Z,829
2022-08-05T05:00:18.460Z,824
2022-08-05T05:02:35.985Z,820
2022-08-05T05:04:17.466Z,815
2022-08-05T05:06:35.692Z,819
2022-08-05T05:08:26.781Z,818
2022-08-05T05:10:17.844Z,811
2022-08-05T05:12:17.764Z,817
2022-08-05T05:14:17.546Z,815
2022-08-05T05:16:19.691Z,815
2022-08-05T05:18:28.570Z,819
2022-08-05T05:20:17.646Z,821
2022-08-05T05:22:23.174Z,812
2022-08-05T05:24:17.748Z,823
2022-08-05T05:26:17.557Z,815
2022-08-05T05:28:17.338Z,813
2022-08-05T05:30:29.998Z,816
2022-08-05T05:32:18.354Z,815
2022-08-05T05:34:21.256Z,813
2022-08-05T05:36:17.492Z,811
2022-08-05T05:38:19.571Z,816
2022-08-05T05:40:18.000Z,807
2022-08-05T05:42:17.626Z,817
2022-08-05T05:44:37.101Z,805
2022-08-05T05:46:18.199Z,805
2022-08-05T05:48:17.905Z,806
2022-08-05T05:50:19.587Z,816
2022-08-05T05:52:26.547Z,804
2022-08-05T05:54:17.632Z,810
2022-08-05T05:56:25.912Z,808
2022-08-05T05:58:18.098Z,811
2022-08-05T06:00:17.866Z,803
2022-08-05T06:02:25.334Z,808
2022-08-05T06:04:18.327Z,804
2022-08-05T06:06:17.907Z,805
2022-08-05T06:08:31.464Z,806
2022-08-05T06:10:18.173Z,805
2022-08-05T06:12:18.276Z,809
2022-08-05T06:14:17.522Z,807
2022-08-05T06:16:28.046Z,803
2022-08-05T06:18:17.661Z,799
2022-08-05T06:20:18.767Z,803
2022-08-05T06:22:18.290Z,807
2022-08-05T06:24:17.535Z,807
2022-08-05T06:26:21.121Z,796
2022-08-05T06:28:21.476Z,795
2022-08-05T06:30:18.197Z,805
2022-08-05T06:32:21.601Z,799
2022-08-05T06:34:17.430Z,796
2022-08-05T06:36:17.984Z,804
2022-08-05T06:38:17.642Z,787
2022-08-05T06:40:17.957Z,773
2022-08-05T06:42:17.591Z,761
2022-08-05T06:44:17.960Z,749
2022-08-05T06:46:17.734Z,742
2022-08-05T06:48:47.538Z,719
2022-08-05T06:50:17.953Z,730
2022-08-05T06:52:36.484Z,822
2022-08-05T06:54:19.171Z,776
2022-08-05T06:56:26.166Z,627
2022-08-05T06:58:20.500Z,671
2022-08-05T07:00:22.371Z,672
2022-08-05T07:02:17.500Z,668
2022-08-05T07:04:19.170Z,661
2022-08-05T07:06:19.153Z,648
2022-08-05T07:08:17.572Z,638
2022-08-05T07:10:18.142Z,615
2022-08-05T07:12:23.362Z,610
2022-08-05T07:14:20.832Z,605
2022-08-05T07:16:39.464Z,620
2022-08-05T07:18:21.209Z,690
2022-08-05T07:20:32.744Z,597
2022-08-05T07:22:18.056Z,557
2022-08-05T07:24:18.011Z,551
2022-08-05T07:26:22.526Z,555
2022-08-05T07:28:17.635Z,563
2022-08-05T07:30:22.566Z,574
2022-08-05T07:32:17.768Z,584
2022-08-05T07:34:21.301Z,582
2022-08-05T07:36:19.596Z,571
2022-08-05T07:38:26.287Z,553
2022-08-05T07:40:27.198Z,550
2022-08-05T07:42:18.373Z,667
2022-08-05T07:44:18.840Z,586
2022-08-05T07:46:24.965Z,556
2022-08-05T07:48:35.127Z,535
2022-08-05T07:50:17.894Z,539
2022-08-05T07:52:17.683Z,522
2022-08-05T07:54:18.697Z,523
2022-08-05T07:56:39.623Z,514
2022-08-05T07:58:17.739Z,506
2022-08-05T08:00:17.418Z,509
2022-08-05T08:02:18.416Z,571
2022-08-05T08:04:23.043Z,528
2022-08-05T08:06:17.421Z,523
2022-08-05T08:08:19.900Z,523
2022-08-05T08:10:20.653Z,520
2022-08-05T08:12:30.682Z,504
2022-08-05T08:14:18.387Z,518
2022-08-05T08:16:34.177Z,506
2022-08-05T08:18:20.735Z,495
2022-08-05T08:20:23.182Z,487
2022-08-05T08:22:18.178Z,468
2022-08-05T08:24:17.729Z,482
2022-08-05T08:26:17.940Z,490
2022-08-05T08:28:18.576Z,504
2022-08-05T08:30:30.380Z,496
2022-08-05T08:32:18.624Z,470
2022-08-05T08:34:18.496Z,464
2022-08-05T08:36:47.474Z,471
2022-08-05T08:38:17.538Z,479
2022-08-05T08:40:17.715Z,488
2022-08-05T08:42:32.701Z,497
2022-08-05T08:45:17.272Z,514
2022-08-05T08:46:17.946Z,519
2022-08-05T08:48:23.989Z,507
2022-08-05T08:50:23.518Z,517
2022-08-05T08:52:17.993Z,527
2022-08-05T08:54:17.827Z,535
2022-08-05T08:56:18.106Z,546
2022-08-05T08:58:17.489Z,540
2022-08-05T09:00:19.258Z,542
2022-08-05T09:02:17.327Z,571
2022-08-05T09:04:18.189Z,565
2022-08-05T09:06:20.394Z,536
2022-08-05T09:08:17.940Z,558
2022-08-05T09:10:18.231Z,546
2022-08-05T09:12:20.381Z,534
2022-08-05T09:14:55.296Z,541
2022-08-05T09:16:17.554Z,536
2022-08-05T09:18:17.761Z,518
2022-08-05T09:20:20.986Z,510
2022-08-05T09:22:23.547Z,511
2022-08-05T09:24:17.741Z,510
2022-08-05T09:26:20.657Z,526
2022-08-05T09:28:20.970Z,518
2022-08-05T09:30:18.067Z,533
2022-08-05T09:32:39.717Z,535
2022-08-05T09:34:17.393Z,530
2022-08-05T09:36:18.158Z,517
2022-08-05T09:38:27.681Z,515
2022-08-05T09:40:18.289Z,509
2022-08-05T09:42:23.777Z,497
2022-08-05T09:44:17.734Z,487
2022-08-05T09:46:17.635Z,479
2022-08-05T09:48:18.220Z,478
2022-08-05T09:50:37.252Z,464
2022-08-05T09:52:18.063Z,464
2022-08-05T09:54:21.306Z,464
2022-08-05T09:56:17.874Z,480
2022-08-05T09:58:17.917Z,499
2022-08-05T10:00:17.823Z,496
2022-08-05T10:02:17.718Z,495
2022-08-05T10:04:17.576Z,487
2022-08-05T10:06:18.342Z,478
2022-08-05T10:08:35.566Z,473
2022-08-05T10:10:18.107Z,472
2022-08-05T10:12:19.004Z,459
2022-08-05T10:14:17.701Z,464
2022-08-05T10:16:17.492Z,479
2022-08-05T10:18:17.728Z,489
2022-08-05T10:20:18.215Z,503
2022-08-05T10:22:29.654Z,502
2022-08-05T10:24:17.483Z,497
2022-08-05T10:26:17.434Z,491
2022-08-05T10:28:19.705Z,493
2022-08-05T10:31:20.506Z,506
2022-08-05T10:32:51.316Z,496
2022-08-05T10:34:17.530Z,515
2022-08-05T10:36:18.253Z,503
2022-08-05T10:38:18.271Z,504
2022-08-05T10:40:18.679Z,522
2022-08-05T10:42:18.747Z,536
2022-08-05T10:44:18.205Z,538
2022-08-05T10:46:18.061Z,530
2022-08-05T10:48:30.535Z,519
2022-08-05T10:50:32.725Z,537
2022-08-05T10:52:17.600Z,558
2022-08-05T10:54:23.344Z,583
2022-08-05T10:56:21.716Z,562
2022-08-05T10:58:17.931Z,552
2022-08-05T11:00:20.353Z,534
2022-08-05T11:02:35.155Z,540
2022-08-05T11:04:17.465Z,545
2022-08-05T11:06:18.094Z,529
2022-08-05T11:08:33.974Z,532
2022-08-05T11:10:17.974Z,517
2022-08-05T11:12:17.402Z,510
2022-08-05T11:14:17.458Z,514
2022-08-05T11:16:17.490Z,532
2022-08-05T11:18:17.502Z,535
2022-08-05T11:20:18.464Z,541
2022-08-05T11:22:17.768Z,557
2022-08-05T11:24:29.908Z,542
2022-08-05T11:26:29.327Z,543
2022-08-05T11:28:18.471Z,547
2022-08-05T11:30:18.365Z,583
2022-08-05T11:32:18.229Z,618
2022-08-05T11:34:21.240Z,628
2022-08-05T11:36:33.895Z,635
2022-08-05T11:38:27.044Z,639
2022-08-05T11:40:18.259Z,618
2022-08-05T11:42:18.273Z,618
2022-08-05T11:44:21.677Z,612
2022-08-05T11:46:30.769Z,602
2022-08-05T11:48:18.019Z,581
2022-08-05T11:50:17.645Z,599
2022-08-05T11:52:17.430Z,570
2022-08-05T11:54:17.789Z,583
2022-08-05T11:56:18.101Z,576
2022-08-05T11:58:18.089Z,590
2022-08-05T12:00:17.746Z,589
2022-08-05T12:02:24.346Z,568
2022-08-05T12:04:17.973Z,580
2022-08-05T12:06:17.413Z,561
2022-08-05T12:08:18.098Z,557
2022-08-05T12:10:18.182Z,569
2022-08-05T12:12:17.375Z,579
2022-08-05T12:14:17.610Z,567
2022-08-05T12:16:17.517Z,545
2022-08-05T12:18:17.539Z,553
2022-08-05T12:20:27.932Z,533
2022-08-05T12:22:20.044Z,519
2022-08-05T12:24:17.976Z,527
2022-08-05T12:26:17.752Z,517
2022-08-05T12:28:17.644Z,525
2022-08-05T12:30:18.128Z,532
2022-08-05T12:32:17.851Z,560
2022-08-05T12:34:20.354Z,533
2022-08-05T12:36:18.088Z,549
2022-08-05T12:38:17.538Z,537
2022-08-05T12:40:20.815Z,539
2022-08-05T12:42:17.498Z,518
2022-08-05T12:44:21.827Z,491
2022-08-05T12:46:17.417Z,477
2022-08-05T12:48:27.867Z,496
2022-08-05T12:50:17.772Z,499
2022-08-05T12:52:24.100Z,469
2022-08-05T12:54:23.304Z,458
2022-08-05T12:56:34.078Z,463
2022-08-05T12:58:39.651Z,452
2022-08-05T13:01:59.277Z,467
2022-08-05T13:02:17.895Z,459
2022-08-05T13:04:21.134Z,467
2022-08-05T13:06:18.319Z,467
2022-08-05T13:08:18.132Z,464
2022-08-05T13:10:19.525Z,472
2022-08-05T13:12:17.756Z,470
2022-08-05T13:14:19.648Z,461
2022-08-05T13:16:17.749Z,459
2022-08-05T13:18:18.953Z,465
2022-08-05T13:20:21.786Z,468
2022-08-05T13:22:27.627Z,463
2022-08-05T13:24:27.865Z,459
2022-08-05T13:26:17.872Z,463
2022-08-05T13:28:18.505Z,475
2022-08-05T13:30:33.440Z,475
2022-08-05T13:32:21.387Z,469
2022-08-05T13:34:20.869Z,464
2022-08-05T13:36:17.535Z,470
2022-08-05T13:38:20.330Z,476
2022-08-05T13:40:35.814Z,477
2022-08-05T13:42:17.575Z,478
2022-08-05T13:44:18.308Z,490
2022-08-05T13:46:30.538Z,507
2022-08-05T13:48:56.980Z,535
2022-08-05T13:50:17.968Z,548
2022-08-05T13:52:18.194Z,561
2022-08-05T13:54:20.916Z,583
2022-08-05T13:56:18.276Z,602
2022-08-05T13:58:23.261Z,619
2022-08-05T14:00:18.348Z,641
2022-08-05T14:02:19.851Z,655
2022-08-05T14:04:17.864Z,655
2022-08-05T14:06:26.546Z,661
2022-08-05T14:08:19.951Z,671
2022-08-05T14:10:18.597Z,679
2022-08-05T14:12:32.375Z,677
2022-08-05T14:14:23.419Z,685
2022-08-05T14:16:19.194Z,677
2022-08-05T14:18:23.113Z,683
2022-08-05T14:20:18.419Z,683
2022-08-05T14:22:17.641Z,687
2022-08-05T14:24:19.387Z,685
2022-08-05T14:26:35.414Z,696
2022-08-05T14:28:26.109Z,678
2022-08-05T14:30:19.031Z,689
2022-08-05T14:32:26.577Z,690
2022-08-05T14:34:17.679Z,689
2022-08-05T14:36:20.691Z,693
2022-08-05T14:38:28.029Z,701
2022-08-05T14:40:17.538Z,703
2022-08-05T14:42:19.733Z,687
2022-08-05T14:44:20.095Z,689
2022-08-05T14:46:17.540Z,701
2022-08-05T14:48:32.851Z,721
2022-08-05T14:50:19.219Z,728
2022-08-05T14:52:36.561Z,732
2022-08-05T14:54:28.913Z,745
2022-08-05T14:56:22.603Z,749
2022-08-05T14:58:17.665Z,752
2022-08-05T15:00:19.970Z,755
2022-08-05T15:02:17.941Z,750
2022-08-05T15:04:20.395Z,755
2022-08-05T15:06:18.100Z,747
2022-08-05T15:08:38.217Z,742
2022-08-05T15:10:17.539Z,745
2022-08-05T15:12:17.701Z,752
2022-08-05T15:14:20.379Z,748
2022-08-05T15:16:18.096Z,743
2022-08-05T15:18:17.682Z,717
2022-08-05T15:20:19.163Z,728
2022-08-05T15:22:17.613Z,728
2022-08-05T15:24:17.400Z,734
2022-08-05T15:26:31.878Z,734
2022-08-05T15:28:17.445Z,748
2022-08-05T15:30:17.693Z,738
2022-08-05T15:32:17.593Z,739
2022-08-05T15:34:19.588Z,746
2022-08-05T15:36:24.099Z,733
2022-08-05T15:38:35.247Z,759
2022-08-05T15:40:42.508Z,845
2022-08-05T15:42:50.235Z,809
2022-08-05T15:44:18.139Z,801
2022-08-05T15:46:18.299Z,791
2022-08-05T15:48:23.164Z,778
2022-08-05T15:50:17.969Z,786
2022-08-05T15:52:29.071Z,812
2022-08-05T15:54:18.084Z,814
2022-08-05T15:56:17.917Z,817
2022-08-05T15:58:17.742Z,808
2022-08-05T16:00:25.904Z,813
2022-08-05T16:02:19.623Z,815
2022-08-05T16:04:18.201Z,812
2022-08-05T16:06:19.773Z,814
2022-08-05T16:08:17.361Z,817
2022-08-05T16:10:23.231Z,816
2022-08-05T16:12:19.783Z,825
2022-08-05T16:14:17.802Z,831
2022-08-05T16:16:21.385Z,858
2022-08-05T16:18:17.433Z,880
2022-08-05T16:20:17.433Z,887
2022-08-05T16:22:17.600Z,895
2022-08-05T16:24:35.892Z,892
2022-08-05T16:26:17.917Z,893
2022-08-05T16:28:17.890Z,902
2022-08-05T16:30:23.451Z,905
2022-08-05T16:32:17.876Z,899
2022-08-05T16:34:18.096Z,909
2022-08-05T16:36:20.319Z,907
2022-08-05T16:38:24.857Z,868
2022-08-05T16:40:20.266Z,913
2022-08-05T16:42:20.488Z,920
2022-08-05T16:44:18.376Z,926
2022-08-05T16:46:24.148Z,918
2022-08-05T16:48:25.093Z,926
2022-08-05T16:50:17.424Z,927
2022-08-05T16:52:18.110Z,929
2022-08-05T16:54:20.588Z,922
2022-08-05T16:56:17.538Z,920
2022-08-05T16:58:19.799Z,912
2022-08-05T17:00:26.337Z,922
2022-08-05T17:02:17.702Z,917
2022-08-05T17:04:18.725Z,915
2022-08-05T17:06:17.676Z,928
2022-08-05T17:08:33.713Z,921
2022-08-05T17:10:17.395Z,928
2022-08-05T17:12:17.559Z,927
2022-08-05T17:14:22.486Z,922
2022-08-05T17:16:35.848Z,925
2022-08-05T17:18:17.552Z,924
2022-08-05T17:20:17.797Z,926
2022-08-05T17:22:21.995Z,927
2022-08-05T17:24:20.616Z,925
2022-08-05T17:26:17.703Z,931
2022-08-05T17:28:17.623Z,918
2022-08-05T17:30:18.662Z,922
2022-08-05T17:32:17.912Z,914
2022-08-05T17:34:17.804Z,926
2022-08-05T17:36:31.697Z,925
2022-08-05T17:38:18.145Z,925
2022-08-05T17:40:18.097Z,920
2022-08-05T17:42:21.323Z,918
2022-08-05T17:44:18.030Z,924
2022-08-05T17:46:18.477Z,923
2022-08-05T17:48:18.347Z,928
2022-08-05T17:50:22.633Z,927
2022-08-05T17:52:17.631Z,933
2022-08-05T17:54:23.225Z,932
2022-08-05T17:56:17.874Z,936
2022-08-05T17:58:17.690Z,940
2022-08-05T18:00:18.503Z,936
2022-08-05T18:02:17.456Z,939
2022-08-05T18:04:21.258Z,941
2022-08-05T18:06:17.828Z,935
2022-08-05T18:08:17.422Z,1019
2022-08-05T18:10:20.672Z,1018
2022-08-05T18:12:22.188Z,1012
2022-08-05T18:14:20.317Z,1042
2022-08-05T18:16:18.146Z,1034
2022-08-05T18:18:18.300Z,992
2022-08-05T18:20:18.129Z,901
2022-08-05T18:22:18.228Z,806
2022-08-05T18:24:17.977Z,719
2022-08-05T18:26:18.161Z,519
2022-08-05T18:28:17.710Z,653
2022-08-05T18:30:17.872Z,554
2022-08-05T18:32:18.097Z,584
2022-08-05T18:34:17.777Z,676
2022-08-05T18:36:17.580Z,562
2022-08-05T18:38:19.232Z,533
2022-08-05T18:40:31.895Z,543
2022-08-05T18:42:18.206Z,515
2022-08-05T18:44:25.822Z,502
2022-08-05T18:46:19.696Z,504
2022-08-05T18:48:30.329Z,450
2022-08-05T18:50:18.015Z,535
2022-08-05T18:52:18.252Z,516
2022-08-05T18:54:17.891Z,506
2022-08-05T18:56:17.741Z,512
2022-08-05T18:58:17.720Z,511
2022-08-05T19:00:20.176Z,505
2022-08-05T19:02:26.560Z,529
2022-08-05T19:04:23.833Z,524
2022-08-05T19:06:19.327Z,517
2022-08-05T19:08:17.480Z,510
2022-08-05T19:10:17.652Z,542
2022-08-05T19:12:17.626Z,523
2022-08-05T19:14:45.081Z,490
2022-08-05T19:16:24.301Z,466
2022-08-05T19:18:21.095Z,471
2022-08-05T19:20:17.404Z,462
2022-08-05T19:22:17.839Z,476
2022-08-05T19:24:17.961Z,470
2022-08-05T19:26:17.244Z,463
2022-08-05T19:28:17.787Z,475
2022-08-05T19:30:17.590Z,479
2022-08-05T19:32:17.776Z,474
2022-08-05T19:34:18.575Z,471
2022-08-05T19:36:17.746Z,472
2022-08-05T19:38:20.367Z,489
2022-08-05T19:40:18.509Z,509
2022-08-05T19:42:18.029Z,521
2022-08-05T19:44:18.433Z,535
2022-08-05T19:46:29.122Z,534
2022-08-05T19:48:18.135Z,511
2022-08-05T19:50:17.394Z,500
2022-08-05T19:52:31.362Z,467
2022-08-05T19:54:22.946Z,458
2022-08-05T19:56:19.788Z,474
2022-08-05T19:58:24.660Z,474
2022-08-05T20:00:18.355Z,492
2022-08-05T20:02:17.843Z,489
2022-08-05T20:04:17.776Z,491
2022-08-05T20:06:28.922Z,494
2022-08-05T20:08:18.357Z,511
2022-08-05T20:10:19.279Z,517
2022-08-05T20:12:17.944Z,515
2022-08-05T20:14:23.316Z,511
2022-08-05T20:16:19.493Z,476
2022-08-05T20:18:32.923Z,469
2022-08-05T20:20:17.531Z,465
2022-08-05T20:22:17.291Z,483
2022-08-05T20:24:17.674Z,480
2022-08-05T20:26:17.787Z,472
2022-08-05T20:28:17.671Z,465
2022-08-05T20:30:18.195Z,468
2022-08-05T20:32:17.714Z,466
2022-08-05T20:34:17.793Z,463
2022-08-05T20:36:17.932Z,460
2022-08-05T20:38:20.280Z,482
2022-08-05T20:40:17.915Z,480
2022-08-05T20:42:21.523Z,472
2022-08-05T20:44:30.047Z,477
2022-08-05T20:46:18.323Z,485
2022-08-05T20:48:17.640Z,501
2022-08-05T20:50:17.586Z,520
2022-08-05T20:52:17.912Z,516
2022-08-05T20:54:17.895Z,521
2022-08-05T20:56:18.063Z,518
2022-08-05T20:58:17.759Z,542
2022-08-05T21:00:21.566Z,610
2022-08-05T21:02:18.315Z,595
2022-08-05T21:04:17.643Z,561
2022-08-05T21:06:23.110Z,541
2022-08-05T21:08:17.539Z,528
2022-08-05T21:10:18.331Z,512
2022-08-05T21:12:17.839Z,512
2022-08-05T21:14:17.652Z,516
2022-08-05T21:16:17.860Z,546
2022-08-05T21:18:17.840Z,564
2022-08-05T21:20:32.546Z,580
2022-08-05T21:22:18.256Z,591
2022-08-05T21:24:19.462Z,613
2022-08-05T21:26:17.623Z,658
2022-08-05T21:28:18.325Z,684
2022-08-05T21:30:17.824Z,676
2022-08-05T21:32:19.974Z,666
2022-08-05T21:34:17.642Z,673
2022-08-05T21:36:19.028Z,714
2022-08-05T21:38:17.966Z,760
2022-08-05T21:40:17.744Z,748
2022-08-05T21:42:19.717Z,741
2022-08-05T21:44:17.713Z,723
2022-08-05T21:46:17.853Z,715
2022-08-05T21:48:17.652Z,702
2022-08-05T21:50:18.282Z,703
2022-08-05T21:52:23.133Z,694
2022-08-05T21:54:17.815Z,697
2022-08-05T21:56:17.626Z,701
2022-08-05T21:58:17.409Z,698
2022-08-05T22:00:17.828Z,703
2022-08-05T22:02:17.828Z,695
2022-08-05T22:04:17.874Z,691
2022-08-05T22:06:22.248Z,702
2022-08-05T22:08:22.030Z,714
2022-08-05T22:10:17.473Z,715
2022-08-05T22:12:17.351Z,723
2022-08-05T22:14:20.081Z,716
2022-08-05T22:16:39.303Z,725
2022-08-05T22:18:18.844Z,710
2022-08-05T22:20:17.622Z,712
2022-08-05T22:22:26.726Z,708
2022-08-05T22:24:39.923Z,702
2022-08-05T22:26:17.871Z,691
2022-08-05T22:28:18.183Z,698
2022-08-05T22:30:18.103Z,694
2022-08-05T22:32:17.837Z,699
2022-08-05T22:34:20.226Z,701
2022-08-05T22:36:18.240Z,697
2022-08-05T22:38:18.858Z,695
2022-08-05T22:40:20.382Z,688
2022-08-05T22:42:25.556Z,687
2022-08-05T22:44:18.928Z,680
2022-08-05T22:46:23.381Z,685
2022-08-05T22:48:17.511Z,672
2022-08-05T22:50:22.912Z,669
2022-08-05T22:52:22.980Z,668
2022-08-05T22:54:18.090Z,671
2022-08-05T22:56:17.904Z,662
2022-08-05T22:58:17.971Z,669
2022-08-05T23:00:17.903Z,666
2022-08-05T23:02:17.860Z,661
2022-08-05T23:04:17.789Z,661
2022-08-05T23:06:19.006Z,667
2022-08-05T23:08:17.886Z,651
2022-08-05T23:10:19.820Z,658
2022-08-05T23:12:17.494Z,652
2022-08-05T23:14:22.513Z,655
2022-08-05T23:16:26.152Z,662
2022-08-05T23:18:17.633Z,667
2022-08-05T23:20:18.140Z,670
2022-08-05T23:22:19.252Z,669
2022-08-05T23:24:17.939Z,666
2022-08-05T23:26:18.145Z,659
2022-08-05T23:28:17.924Z,656
2022-08-05T23:30:18.280Z,656
2022-08-05T23:32:22.649Z,657
2022-08-05T23:34:24.434Z,660
2022-08-05T23:36:17.607Z,661
2022-08-05T23:38:18.014Z,652
2022-08-05T23:40:17.979Z,661
2022-08-05T23:42:23.645Z,682
2022-08-05T23:44:19.731Z,682
2022-08-05T23:46:20.443Z,676
2022-08-05T23:48:17.558Z,678
2022-08-05T23:50:20.154Z,671
2022-08-05T23:52:17.590Z,666
2022-08-05T23:54:17.947Z,667
2022-08-05T23:56:19.954Z,662
2022-08-05T23:58:31.497Z,655
